sensor_id;sensor_type;location;lat;lon;timestamp;pressure;altitude;pressure_sealevel;temperature
70831;BMP180;58451;51.550;7.208;2022-10-30T00:00:52;100984.60;;;15.40
70831;BMP180;58451;51.550;7.208;2022-10-30T00:02:24;100986.20;;;15.40
70831;BMP180;58451;51.550;7.208;2022-10-30T00:03:56;100981.60;;;15.40
70831;BMP180;58451;51.550;7.208;2022-10-30T00:05:28;100983.40;;;15.40
70831;BMP180;58451;51.550;7.208;2022-10-30T00:07:00;100985.40;;;15.30
70831;BMP180;58451;51.550;7.208;2022-10-30T00:08:32;100982.80;;;15.30
70831;BMP180;58451;51.550;7.208;2022-10-30T00:10:05;100980.80;;;15.30
70831;BMP180;58451;51.550;7.208;2022-10-30T00:11:37;100982.80;;;15.30
70831;BMP180;58451;51.550;7.208;2022-10-30T00:13:10;100979.20;;;15.28
70831;BMP180;58451;51.550;7.208;2022-10-30T00:14:42;100984.60;;;15.20
70831;BMP180;58451;51.550;7.208;2022-10-30T00:16:14;100982.60;;;15.20
70831;BMP180;58451;51.550;7.208;2022-10-30T00:17:45;100985.20;;;15.20
70831;BMP180;58451;51.550;7.208;2022-10-30T00:19:18;100985.40;;;15.20
70831;BMP180;58451;51.550;7.208;2022-10-30T00:20:50;100982.40;;;15.18
70831;BMP180;58451;51.550;7.208;2022-10-30T00:22:22;100984.20;;;15.10
70831;BMP180;58451;51.550;7.208;2022-10-30T00:24:03;100987.40;;;15.10
70831;BMP180;58451;51.550;7.208;2022-10-30T00:25:35;100991.00;;;15.10
70831;BMP180;58451;51.550;7.208;2022-10-30T00:27:07;100994.80;;;15.10
70831;BMP180;58451;51.550;7.208;2022-10-30T00:28:39;100993.60;;;15.00
70831;BMP180;58451;51.550;7.208;2022-10-30T00:30:11;100999.20;;;15.00
70831;BMP180;58451;51.550;7.208;2022-10-30T00:31:43;100996.00;;;15.00
70831;BMP180;58451;51.550;7.208;2022-10-30T00:33:15;100996.00;;;15.00
70831;BMP180;58451;51.550;7.208;2022-10-30T00:34:48;101000.80;;;15.00
70831;BMP180;58451;51.550;7.208;2022-10-30T00:36:22;101001.20;;;14.96
70831;BMP180;58451;51.550;7.208;2022-10-30T00:37:53;100999.80;;;14.90
70831;BMP180;58451;51.550;7.208;2022-10-30T00:39:26;100996.60;;;14.90
70831;BMP180;58451;51.550;7.208;2022-10-30T00:40:58;100995.00;;;14.90
70831;BMP180;58451;51.550;7.208;2022-10-30T00:42:31;100997.60;;;14.90
70831;BMP180;58451;51.550;7.208;2022-10-30T00:48:01;100998.40;;;14.90
70831;BMP180;58451;51.550;7.208;2022-10-30T00:49:52;100997.00;;;14.90
70831;BMP180;58451;51.550;7.208;2022-10-30T00:51:28;100994.80;;;14.88
70831;BMP180;58451;51.550;7.208;2022-10-30T00:53:07;100990.80;;;14.82
70831;BMP180;58451;51.550;7.208;2022-10-30T00:54:52;100994.40;;;14.80
70831;BMP180;58451;51.550;7.208;2022-10-30T00:56:26;100992.60;;;14.80
70831;BMP180;58451;51.550;7.208;2022-10-30T00:58:02;100991.20;;;14.80
70831;BMP180;58451;51.550;7.208;2022-10-30T00:59:38;100992.00;;;14.80
70831;BMP180;58451;51.550;7.208;2022-10-30T01:01:16;100994.60;;;14.80
70831;BMP180;58451;51.550;7.208;2022-10-30T01:02:51;100990.20;;;14.80
70831;BMP180;58451;51.550;7.208;2022-10-30T01:04:25;100987.40;;;14.80
70831;BMP180;58451;51.550;7.208;2022-10-30T01:06:06;100985.00;;;14.78
70831;BMP180;58451;51.550;7.208;2022-10-30T01:07:39;100988.20;;;14.70
70831;BMP180;58451;51.550;7.208;2022-10-30T01:09:11;100987.00;;;14.70
70831;BMP180;58451;51.550;7.208;2022-10-30T01:10:43;100988.20;;;14.70
70831;BMP180;58451;51.550;7.208;2022-10-30T01:12:15;100985.60;;;14.70
70831;BMP180;58451;51.550;7.208;2022-10-30T01:13:49;100984.80;;;14.70
70831;BMP180;58451;51.550;7.208;2022-10-30T01:15:29;100984.20;;;14.70
70831;BMP180;58451;51.550;7.208;2022-10-30T01:17:33;100985.60;;;14.70
70831;BMP180;58451;51.550;7.208;2022-10-30T01:21:44;100986.80;;;14.60
70831;BMP180;58451;51.550;7.208;2022-10-30T01:36:25;101000.40;;;14.36
70831;BMP180;58451;51.550;7.208;2022-10-30T01:38:11;100993.40;;;14.30
70831;BMP180;58451;51.550;7.208;2022-10-30T01:39:44;100990.40;;;14.30
70831;BMP180;58451;51.550;7.208;2022-10-30T01:41:16;100995.40;;;14.30
70831;BMP180;58451;51.550;7.208;2022-10-30T01:42:55;100999.20;;;14.30
70831;BMP180;58451;51.550;7.208;2022-10-30T01:44:33;100998.40;;;14.30
70831;BMP180;58451;51.550;7.208;2022-10-30T01:46:28;101001.60;;;14.28
70831;BMP180;58451;51.550;7.208;2022-10-30T01:56:27;100992.40;;;14.10
70831;BMP180;58451;51.550;7.208;2022-10-30T02:00:07;100993.60;;;14.10
70831;BMP180;58451;51.550;7.208;2022-10-30T02:01:49;100991.00;;;14.00
70831;BMP180;58451;51.550;7.208;2022-10-30T02:03:22;100989.80;;;14.00
70831;BMP180;58451;51.550;7.208;2022-10-30T02:04:54;100987.20;;;14.00
70831;BMP180;58451;51.550;7.208;2022-10-30T02:06:27;100988.60;;;14.00
70831;BMP180;58451;51.550;7.208;2022-10-30T02:08:00;100987.20;;;13.90
70831;BMP180;58451;51.550;7.208;2022-10-30T02:09:33;100986.40;;;13.90
70831;BMP180;58451;51.550;7.208;2022-10-30T02:11:05;100979.00;;;13.90
70831;BMP180;58451;51.550;7.208;2022-10-30T02:12:43;100981.20;;;13.90
70831;BMP180;58451;51.550;7.208;2022-10-30T02:14:36;100988.20;;;13.80
70831;BMP180;58451;51.550;7.208;2022-10-30T02:16:09;100985.20;;;13.80
70831;BMP180;58451;51.550;7.208;2022-10-30T02:17:41;100989.00;;;13.80
70831;BMP180;58451;51.550;7.208;2022-10-30T02:19:13;100990.40;;;13.70
70831;BMP180;58451;51.550;7.208;2022-10-30T02:20:46;100990.40;;;13.70
70831;BMP180;58451;51.550;7.208;2022-10-30T02:22:19;100981.80;;;13.70
70831;BMP180;58451;51.550;7.208;2022-10-30T02:23:50;100976.00;;;13.70
70831;BMP180;58451;51.550;7.208;2022-10-30T02:25:25;100982.60;;;13.62
70831;BMP180;58451;51.550;7.208;2022-10-30T02:26:57;100982.40;;;13.60
70831;BMP180;58451;51.550;7.208;2022-10-30T02:28:29;100979.80;;;13.58
70831;BMP180;58451;51.550;7.208;2022-10-30T02:30:01;100984.20;;;13.50
70831;BMP180;58451;51.550;7.208;2022-10-30T02:31:33;100981.80;;;13.50
70831;BMP180;58451;51.550;7.208;2022-10-30T02:33:04;100983.80;;;13.50
70831;BMP180;58451;51.550;7.208;2022-10-30T02:34:36;100984.20;;;13.44
70831;BMP180;58451;51.550;7.208;2022-10-30T02:36:08;100981.60;;;13.40
70831;BMP180;58451;51.550;7.208;2022-10-30T02:37:41;100982.20;;;13.40
70831;BMP180;58451;51.550;7.208;2022-10-30T02:39:13;100979.40;;;13.32
70831;BMP180;58451;51.550;7.208;2022-10-30T02:40:45;100977.40;;;13.30
70831;BMP180;58451;51.550;7.208;2022-10-30T02:42:17;100978.40;;;13.30
70831;BMP180;58451;51.550;7.208;2022-10-30T02:43:50;100981.40;;;13.28
70831;BMP180;58451;51.550;7.208;2022-10-30T02:45:24;100987.60;;;13.20
70831;BMP180;58451;51.550;7.208;2022-10-30T02:46:56;100992.80;;;13.20
70831;BMP180;58451;51.550;7.208;2022-10-30T02:48:29;100988.20;;;13.18
70831;BMP180;58451;51.550;7.208;2022-10-30T02:50:01;100987.40;;;13.10
70831;BMP180;58451;51.550;7.208;2022-10-30T02:51:34;100990.00;;;13.10
70831;BMP180;58451;51.550;7.208;2022-10-30T02:53:06;100995.40;;;13.10
70831;BMP180;58451;51.550;7.208;2022-10-30T02:54:38;100996.20;;;13.10
70831;BMP180;58451;51.550;7.208;2022-10-30T02:56:12;100994.40;;;13.00
70831;BMP180;58451;51.550;7.208;2022-10-30T02:57:44;100992.20;;;13.00
70831;BMP180;58451;51.550;7.208;2022-10-30T02:59:17;100992.40;;;13.00
70831;BMP180;58451;51.550;7.208;2022-10-30T03:00:48;100986.80;;;13.00
70831;BMP180;58451;51.550;7.208;2022-10-30T03:02:20;100989.80;;;13.00
70831;BMP180;58451;51.550;7.208;2022-10-30T03:03:53;100991.60;;;12.92
70831;BMP180;58451;51.550;7.208;2022-10-30T03:05:26;100994.20;;;12.90
70831;BMP180;58451;51.550;7.208;2022-10-30T03:06:58;100994.80;;;12.90
70831;BMP180;58451;51.550;7.208;2022-10-30T03:08:30;100993.00;;;12.90
70831;BMP180;58451;51.550;7.208;2022-10-30T03:10:02;100996.40;;;12.80
70831;BMP180;58451;51.550;7.208;2022-10-30T03:11:34;101000.20;;;12.80
70831;BMP180;58451;51.550;7.208;2022-10-30T03:13:06;100997.80;;;12.80
70831;BMP180;58451;51.550;7.208;2022-10-30T03:14:38;100996.60;;;12.80
70831;BMP180;58451;51.550;7.208;2022-10-30T03:16:20;101000.00;;;12.78
70831;BMP180;58451;51.550;7.208;2022-10-30T03:17:52;100995.00;;;12.70
70831;BMP180;58451;51.550;7.208;2022-10-30T03:19:25;100999.40;;;12.70
70831;BMP180;58451;51.550;7.208;2022-10-30T03:21:02;101000.00;;;12.70
70831;BMP180;58451;51.550;7.208;2022-10-30T03:22:34;100999.40;;;12.70
70831;BMP180;58451;51.550;7.208;2022-10-30T03:24:06;100998.80;;;12.62
70831;BMP180;58451;51.550;7.208;2022-10-30T03:25:38;100997.20;;;12.60
70831;BMP180;58451;51.550;7.208;2022-10-30T03:27:10;100994.80;;;12.60
70831;BMP180;58451;51.550;7.208;2022-10-30T03:28:43;101002.20;;;12.60
70831;BMP180;58451;51.550;7.208;2022-10-30T03:30:15;101005.40;;;12.60
70831;BMP180;58451;51.550;7.208;2022-10-30T03:31:47;101007.20;;;12.60
70831;BMP180;58451;51.550;7.208;2022-10-30T03:33:28;101004.00;;;12.58
70831;BMP180;58451;51.550;7.208;2022-10-30T03:35:00;101006.20;;;12.58
70831;BMP180;58451;51.550;7.208;2022-10-30T03:36:32;101003.20;;;12.50
70831;BMP180;58451;51.550;7.208;2022-10-30T03:38:04;101000.00;;;12.50
70831;BMP180;58451;51.550;7.208;2022-10-30T03:39:36;100999.20;;;12.50
70831;BMP180;58451;51.550;7.208;2022-10-30T03:41:08;100997.60;;;12.50
70831;BMP180;58451;51.550;7.208;2022-10-30T03:42:40;100999.60;;;12.50
70831;BMP180;58451;51.550;7.208;2022-10-30T03:44:12;101003.60;;;12.50
70831;BMP180;58451;51.550;7.208;2022-10-30T03:45:55;101003.40;;;12.50
70831;BMP180;58451;51.550;7.208;2022-10-30T03:47:27;101003.80;;;12.50
70831;BMP180;58451;51.550;7.208;2022-10-30T03:48:59;101006.40;;;12.50
70831;BMP180;58451;51.550;7.208;2022-10-30T03:50:31;101009.00;;;12.50
70831;BMP180;58451;51.550;7.208;2022-10-30T03:52:04;101005.40;;;12.50
70831;BMP180;58451;51.550;7.208;2022-10-30T03:53:35;101011.80;;;12.50
70831;BMP180;58451;51.550;7.208;2022-10-30T03:55:08;101014.00;;;12.50
70831;BMP180;58451;51.550;7.208;2022-10-30T03:56:44;101014.40;;;12.50
70831;BMP180;58451;51.550;7.208;2022-10-30T03:58:18;101013.00;;;12.50
70831;BMP180;58451;51.550;7.208;2022-10-30T03:59:50;101013.20;;;12.50
70831;BMP180;58451;51.550;7.208;2022-10-30T04:01:44;101016.00;;;12.50
70831;BMP180;58451;51.550;7.208;2022-10-30T04:03:16;101010.80;;;12.50
70831;BMP180;58451;51.550;7.208;2022-10-30T04:04:48;101015.20;;;12.50
70831;BMP180;58451;51.550;7.208;2022-10-30T04:06:20;101014.20;;;12.50
70831;BMP180;58451;51.550;7.208;2022-10-30T04:07:58;101011.80;;;12.50
70831;BMP180;58451;51.550;7.208;2022-10-30T04:09:30;101009.80;;;12.50
70831;BMP180;58451;51.550;7.208;2022-10-30T04:11:03;101009.20;;;12.50
70831;BMP180;58451;51.550;7.208;2022-10-30T04:12:36;101011.40;;;12.50
70831;BMP180;58451;51.550;7.208;2022-10-30T04:14:08;101012.00;;;12.50
70831;BMP180;58451;51.550;7.208;2022-10-30T04:15:41;101017.40;;;12.42
70831;BMP180;58451;51.550;7.208;2022-10-30T04:17:12;101018.20;;;12.40
70831;BMP180;58451;51.550;7.208;2022-10-30T04:18:44;101012.80;;;12.40
70831;BMP180;58451;51.550;7.208;2022-10-30T04:20:21;101009.40;;;12.40
70831;BMP180;58451;51.550;7.208;2022-10-30T04:21:53;101005.60;;;12.40
70831;BMP180;58451;51.550;7.208;2022-10-30T04:23:25;101005.60;;;12.30
70831;BMP180;58451;51.550;7.208;2022-10-30T04:24:57;101012.40;;;12.30
70831;BMP180;58451;51.550;7.208;2022-10-30T04:26:29;101014.20;;;12.30
70831;BMP180;58451;51.550;7.208;2022-10-30T04:28:01;101023.00;;;12.22
70831;BMP180;58451;51.550;7.208;2022-10-30T04:29:33;101023.60;;;12.20
70831;BMP180;58451;51.550;7.208;2022-10-30T04:31:05;101019.80;;;12.20
70831;BMP180;58451;51.550;7.208;2022-10-30T04:32:55;101018.20;;;12.20
70831;BMP180;58451;51.550;7.208;2022-10-30T04:34:28;101019.80;;;12.10
70831;BMP180;58451;51.550;7.208;2022-10-30T04:36:01;101018.80;;;12.10
70831;BMP180;58451;51.550;7.208;2022-10-30T04:37:34;101023.00;;;12.10
70831;BMP180;58451;51.550;7.208;2022-10-30T04:39:06;101021.60;;;12.00
70831;BMP180;58451;51.550;7.208;2022-10-30T04:40:41;101021.40;;;12.00
70831;BMP180;58451;51.550;7.208;2022-10-30T04:42:14;101024.20;;;12.00
70831;BMP180;58451;51.550;7.208;2022-10-30T04:43:50;101023.00;;;11.96
70831;BMP180;58451;51.550;7.208;2022-10-30T04:45:22;101012.60;;;11.90
70831;BMP180;58451;51.550;7.208;2022-10-30T04:46:54;101016.40;;;11.90
70831;BMP180;58451;51.550;7.208;2022-10-30T04:48:27;101021.80;;;11.90
70831;BMP180;58451;51.550;7.208;2022-10-30T04:49:59;101024.40;;;11.86
70831;BMP180;58451;51.550;7.208;2022-10-30T04:51:31;101026.60;;;11.80
70831;BMP180;58451;51.550;7.208;2022-10-30T04:53:07;101026.20;;;11.80
70831;BMP180;58451;51.550;7.208;2022-10-30T04:54:40;101023.00;;;11.80
70831;BMP180;58451;51.550;7.208;2022-10-30T04:56:11;101029.40;;;11.76
70831;BMP180;58451;51.550;7.208;2022-10-30T04:57:43;101027.40;;;11.70
70831;BMP180;58451;51.550;7.208;2022-10-30T04:59:15;101028.80;;;11.70
70831;BMP180;58451;51.550;7.208;2022-10-30T05:00:47;101027.20;;;11.70
70831;BMP180;58451;51.550;7.208;2022-10-30T05:02:19;101019.40;;;11.70
70831;BMP180;58451;51.550;7.208;2022-10-30T05:03:51;101018.00;;;11.64
70831;BMP180;58451;51.550;7.208;2022-10-30T05:05:30;101018.00;;;11.60
70831;BMP180;58451;51.550;7.208;2022-10-30T05:07:02;101013.20;;;11.60
70831;BMP180;58451;51.550;7.208;2022-10-30T05:08:34;101013.60;;;11.54
70831;BMP180;58451;51.550;7.208;2022-10-30T05:10:13;101011.80;;;11.50
70831;BMP180;58451;51.550;7.208;2022-10-30T05:11:49;101006.80;;;11.50
70831;BMP180;58451;51.550;7.208;2022-10-30T05:13:22;101008.20;;;11.50
70831;BMP180;58451;51.550;7.208;2022-10-30T05:14:53;101009.20;;;11.50
70831;BMP180;58451;51.550;7.208;2022-10-30T05:16:25;101003.60;;;11.46
70831;BMP180;58451;51.550;7.208;2022-10-30T05:17:58;101002.40;;;11.40
70831;BMP180;58451;51.550;7.208;2022-10-30T05:19:30;100999.20;;;11.40
70831;BMP180;58451;51.550;7.208;2022-10-30T05:21:02;100996.20;;;11.40
70831;BMP180;58451;51.550;7.208;2022-10-30T05:22:34;100996.20;;;11.40
70831;BMP180;58451;51.550;7.208;2022-10-30T05:24:08;100994.80;;;11.40
70831;BMP180;58451;51.550;7.208;2022-10-30T05:25:44;100989.00;;;11.34
70831;BMP180;58451;51.550;7.208;2022-10-30T05:27:17;100986.80;;;11.30
70831;BMP180;58451;51.550;7.208;2022-10-30T05:28:49;100990.00;;;11.30
70831;BMP180;58451;51.550;7.208;2022-10-30T05:30:21;100989.60;;;11.30
70831;BMP180;58451;51.550;7.208;2022-10-30T05:31:53;100992.40;;;11.30
70831;BMP180;58451;51.550;7.208;2022-10-30T05:33:51;100995.60;;;11.24
70831;BMP180;58451;51.550;7.208;2022-10-30T05:35:23;100987.60;;;11.20
70831;BMP180;58451;51.550;7.208;2022-10-30T05:36:55;100995.60;;;11.20
70831;BMP180;58451;51.550;7.208;2022-10-30T05:38:27;100993.60;;;11.20
70831;BMP180;58451;51.550;7.208;2022-10-30T05:39:59;100991.60;;;11.12
70831;BMP180;58451;51.550;7.208;2022-10-30T05:41:32;100996.20;;;11.10
70831;BMP180;58451;51.550;7.208;2022-10-30T05:43:04;100990.40;;;11.10
70831;BMP180;58451;51.550;7.208;2022-10-30T05:44:37;100987.20;;;11.10
70831;BMP180;58451;51.550;7.208;2022-10-30T05:46:29;100985.40;;;11.10
70831;BMP180;58451;51.550;7.208;2022-10-30T05:48:09;100984.20;;;11.10
70831;BMP180;58451;51.550;7.208;2022-10-30T05:49:45;100984.60;;;11.10
70831;BMP180;58451;51.550;7.208;2022-10-30T05:51:21;100982.40;;;11.02
70831;BMP180;58451;51.550;7.208;2022-10-30T05:53:02;100985.40;;;11.00
70831;BMP180;58451;51.550;7.208;2022-10-30T05:54:34;100985.00;;;11.00
70831;BMP180;58451;51.550;7.208;2022-10-30T05:56:17;100985.80;;;11.00
70831;BMP180;58451;51.550;7.208;2022-10-30T05:57:49;100988.40;;;10.98
70831;BMP180;58451;51.550;7.208;2022-10-30T05:59:21;100982.60;;;10.90
70831;BMP180;58451;51.550;7.208;2022-10-30T06:00:53;100982.40;;;10.90
70831;BMP180;58451;51.550;7.208;2022-10-30T06:02:37;100984.00;;;10.90
70831;BMP180;58451;51.550;7.208;2022-10-30T06:04:09;100981.80;;;10.90
70831;BMP180;58451;51.550;7.208;2022-10-30T06:05:44;100980.80;;;10.90
70831;BMP180;58451;51.550;7.208;2022-10-30T06:07:17;100979.20;;;10.82
70831;BMP180;58451;51.550;7.208;2022-10-30T06:08:49;100980.40;;;10.80
70831;BMP180;58451;51.550;7.208;2022-10-30T06:10:34;100976.40;;;10.80
70831;BMP180;58451;51.550;7.208;2022-10-30T06:12:16;100981.20;;;10.80
70831;BMP180;58451;51.550;7.208;2022-10-30T06:14:20;100984.80;;;10.80
70831;BMP180;58451;51.550;7.208;2022-10-30T06:15:54;100984.00;;;10.74
70831;BMP180;58451;51.550;7.208;2022-10-30T06:17:29;100983.40;;;10.70
70831;BMP180;58451;51.550;7.208;2022-10-30T06:19:28;100981.20;;;10.70
70831;BMP180;58451;51.550;7.208;2022-10-30T06:21:10;100987.20;;;10.70
70831;BMP180;58451;51.550;7.208;2022-10-30T06:23:14;100988.60;;;10.70
70831;BMP180;58451;51.550;7.208;2022-10-30T06:24:51;100984.00;;;10.70
70831;BMP180;58451;51.550;7.208;2022-10-30T06:26:33;100985.80;;;10.70
70831;BMP180;58451;51.550;7.208;2022-10-30T06:28:11;100993.80;;;10.70
70831;BMP180;58451;51.550;7.208;2022-10-30T06:29:45;100992.20;;;10.66
70831;BMP180;58451;51.550;7.208;2022-10-30T06:31:17;100990.40;;;10.66
70831;BMP180;58451;51.550;7.208;2022-10-30T06:32:49;100992.20;;;10.62
70831;BMP180;58451;51.550;7.208;2022-10-30T06:34:21;101001.60;;;10.60
70831;BMP180;58451;51.550;7.208;2022-10-30T06:35:54;100998.20;;;10.60
70831;BMP180;58451;51.550;7.208;2022-10-30T06:37:27;100999.80;;;10.60
70831;BMP180;58451;51.550;7.208;2022-10-30T06:38:59;101003.20;;;10.62
70831;BMP180;58451;51.550;7.208;2022-10-30T06:40:37;101003.80;;;10.62
70831;BMP180;58451;51.550;7.208;2022-10-30T06:42:31;101010.00;;;10.68
70831;BMP180;58451;51.550;7.208;2022-10-30T06:44:14;101009.40;;;10.68
70831;BMP180;58451;51.550;7.208;2022-10-30T06:45:46;101007.60;;;10.70
70831;BMP180;58451;51.550;7.208;2022-10-30T06:47:18;101006.40;;;10.70
70831;BMP180;58451;51.550;7.208;2022-10-30T06:48:51;101006.20;;;10.70
70831;BMP180;58451;51.550;7.208;2022-10-30T06:50:23;101005.80;;;10.70
70831;BMP180;58451;51.550;7.208;2022-10-30T06:51:55;101010.00;;;10.70
70831;BMP180;58451;51.550;7.208;2022-10-30T06:53:28;101013.00;;;10.70
70831;BMP180;58451;51.550;7.208;2022-10-30T06:55:13;101012.60;;;10.70
70831;BMP180;58451;51.550;7.208;2022-10-30T06:56:54;101008.00;;;10.70
70831;BMP180;58451;51.550;7.208;2022-10-30T06:58:51;101007.80;;;10.70
70831;BMP180;58451;51.550;7.208;2022-10-30T07:01:02;101006.60;;;10.80
70831;BMP180;58451;51.550;7.208;2022-10-30T07:02:59;101003.60;;;10.80
70831;BMP180;58451;51.550;7.208;2022-10-30T07:04:33;101011.60;;;10.80
70831;BMP180;58451;51.550;7.208;2022-10-30T07:06:05;101013.40;;;10.86
70831;BMP180;58451;51.550;7.208;2022-10-30T07:07:37;101012.60;;;10.90
70831;BMP180;58451;51.550;7.208;2022-10-30T07:09:11;101013.20;;;10.90
70831;BMP180;58451;51.550;7.208;2022-10-30T07:10:44;101011.80;;;11.00
70831;BMP180;58451;51.550;7.208;2022-10-30T07:12:34;101014.00;;;11.00
70831;BMP180;58451;51.550;7.208;2022-10-30T07:14:26;101014.20;;;11.10
70831;BMP180;58451;51.550;7.208;2022-10-30T07:16:24;101017.20;;;11.10
70831;BMP180;58451;51.550;7.208;2022-10-30T07:18:01;101017.20;;;11.18
70831;BMP180;58451;51.550;7.208;2022-10-30T07:19:36;101017.20;;;11.20
70831;BMP180;58451;51.550;7.208;2022-10-30T07:21:09;101016.20;;;11.20
70831;BMP180;58451;51.550;7.208;2022-10-30T07:22:41;101019.20;;;11.30
70831;BMP180;58451;51.550;7.208;2022-10-30T07:24:13;101013.40;;;11.30
70831;BMP180;58451;51.550;7.208;2022-10-30T07:25:53;101019.80;;;11.40
70831;BMP180;58451;51.550;7.208;2022-10-30T07:27:51;101014.20;;;11.40
70831;BMP180;58451;51.550;7.208;2022-10-30T07:29:43;101017.80;;;11.50
70831;BMP180;58451;51.550;7.208;2022-10-30T07:31:47;101017.80;;;11.58
70831;BMP180;58451;51.550;7.208;2022-10-30T07:33:37;101019.60;;;11.64
70831;BMP180;58451;51.550;7.208;2022-10-30T07:35:25;101019.40;;;11.70
70831;BMP180;58451;51.550;7.208;2022-10-30T07:37:16;101020.00;;;11.80
70831;BMP180;58451;51.550;7.208;2022-10-30T07:39:14;101020.00;;;11.90
70831;BMP180;58451;51.550;7.208;2022-10-30T07:41:19;101024.80;;;11.96
70831;BMP180;58451;51.550;7.208;2022-10-30T07:43:00;101025.20;;;12.00
70831;BMP180;58451;51.550;7.208;2022-10-30T07:45:02;101015.80;;;12.10
70831;BMP180;58451;51.550;7.208;2022-10-30T07:46:53;101022.00;;;12.20
70831;BMP180;58451;51.550;7.208;2022-10-30T07:48:51;101023.40;;;12.30
70831;BMP180;58451;51.550;7.208;2022-10-30T07:50:43;101028.40;;;12.40
70831;BMP180;58451;51.550;7.208;2022-10-30T07:52:15;101023.80;;;12.42
70831;BMP180;58451;51.550;7.208;2022-10-30T07:53:50;101025.20;;;12.50
70831;BMP180;58451;51.550;7.208;2022-10-30T07:55:23;101024.40;;;12.60
70831;BMP180;58451;51.550;7.208;2022-10-30T07:56:55;101022.40;;;12.70
70831;BMP180;58451;51.550;7.208;2022-10-30T07:59:07;101020.80;;;12.80
70831;BMP180;58451;51.550;7.208;2022-10-30T08:00:52;101024.40;;;12.80
70831;BMP180;58451;51.550;7.208;2022-10-30T08:02:28;101022.00;;;12.90
70831;BMP180;58451;51.550;7.208;2022-10-30T08:04:18;101021.80;;;13.00
70831;BMP180;58451;51.550;7.208;2022-10-30T08:05:50;101017.40;;;13.08
70831;BMP180;58451;51.550;7.208;2022-10-30T08:07:33;101017.80;;;13.18
70831;BMP180;58451;51.550;7.208;2022-10-30T08:09:05;101014.60;;;13.20
70831;BMP180;58451;51.550;7.208;2022-10-30T08:10:40;101010.80;;;13.30
70831;BMP180;58451;51.550;7.208;2022-10-30T08:12:12;101015.60;;;13.40
70831;BMP180;58451;51.550;7.208;2022-10-30T08:13:44;101021.00;;;13.50
70831;BMP180;58451;51.550;7.208;2022-10-30T08:15:16;101017.20;;;13.60
70831;BMP180;58451;51.550;7.208;2022-10-30T08:16:49;101009.40;;;13.70
70831;BMP180;58451;51.550;7.208;2022-10-30T08:18:21;101012.80;;;13.78
70831;BMP180;58451;51.550;7.208;2022-10-30T08:19:53;101015.40;;;13.86
70831;BMP180;58451;51.550;7.208;2022-10-30T08:21:26;101012.00;;;14.00
70831;BMP180;58451;51.550;7.208;2022-10-30T08:23:11;101010.40;;;14.10
70831;BMP180;58451;51.550;7.208;2022-10-30T08:24:43;101009.80;;;14.20
70831;BMP180;58451;51.550;7.208;2022-10-30T08:26:15;101007.80;;;14.30
70831;BMP180;58451;51.550;7.208;2022-10-30T08:28:05;101010.20;;;14.40
70831;BMP180;58451;51.550;7.208;2022-10-30T08:29:40;101008.20;;;14.50
70831;BMP180;58451;51.550;7.208;2022-10-30T08:31:12;101015.00;;;14.60
70831;BMP180;58451;51.550;7.208;2022-10-30T08:33:08;101015.20;;;14.70
70831;BMP180;58451;51.550;7.208;2022-10-30T08:34:59;101012.20;;;14.88
70831;BMP180;58451;51.550;7.208;2022-10-30T08:36:32;101015.60;;;15.00
70831;BMP180;58451;51.550;7.208;2022-10-30T08:38:05;101013.20;;;15.10
70831;BMP180;58451;51.550;7.208;2022-10-30T08:39:39;101014.40;;;15.20
70831;BMP180;58451;51.550;7.208;2022-10-30T08:41:29;101008.40;;;15.30
70831;BMP180;58451;51.550;7.208;2022-10-30T08:43:00;101012.00;;;15.48
70831;BMP180;58451;51.550;7.208;2022-10-30T08:44:32;101008.80;;;15.58
70831;BMP180;58451;51.550;7.208;2022-10-30T08:46:24;101003.40;;;15.70
70831;BMP180;58451;51.550;7.208;2022-10-30T08:48:01;101003.40;;;15.80
70831;BMP180;58451;51.550;7.208;2022-10-30T08:49:38;101000.00;;;15.90
70831;BMP180;58451;51.550;7.208;2022-10-30T08:51:09;101001.00;;;16.00
70831;BMP180;58451;51.550;7.208;2022-10-30T08:52:46;100999.00;;;16.14
70831;BMP180;58451;51.550;7.208;2022-10-30T08:54:24;100994.80;;;16.30
70831;BMP180;58451;51.550;7.208;2022-10-30T08:55:57;100997.80;;;16.40
70831;BMP180;58451;51.550;7.208;2022-10-30T08:57:39;100994.00;;;16.50
70831;BMP180;58451;51.550;7.208;2022-10-30T08:59:12;100996.40;;;16.60
70831;BMP180;58451;51.550;7.208;2022-10-30T09:00:51;100994.80;;;16.70
70831;BMP180;58451;51.550;7.208;2022-10-30T09:02:50;100993.00;;;16.84
70831;BMP180;58451;51.550;7.208;2022-10-30T09:04:41;100990.40;;;16.90
70831;BMP180;58451;51.550;7.208;2022-10-30T09:06:42;100987.40;;;17.10
70831;BMP180;58451;51.550;7.208;2022-10-30T09:08:29;100990.60;;;17.20
70831;BMP180;58451;51.550;7.208;2022-10-30T09:10:29;100991.20;;;17.30
70831;BMP180;58451;51.550;7.208;2022-10-30T09:12:03;100988.40;;;17.40
70831;BMP180;58451;51.550;7.208;2022-10-30T09:13:40;100995.20;;;17.54
70831;BMP180;58451;51.550;7.208;2022-10-30T09:15:12;100992.20;;;17.66
70831;BMP180;58451;51.550;7.208;2022-10-30T09:16:55;100991.00;;;17.80
70831;BMP180;58451;51.550;7.208;2022-10-30T09:18:27;100989.80;;;17.90
70831;BMP180;58451;51.550;7.208;2022-10-30T09:19:59;100989.60;;;18.00
70831;BMP180;58451;51.550;7.208;2022-10-30T09:21:38;100990.00;;;18.10
70831;BMP180;58451;51.550;7.208;2022-10-30T09:23:10;100992.00;;;18.22
70831;BMP180;58451;51.550;7.208;2022-10-30T09:24:42;100993.00;;;18.32
70831;BMP180;58451;51.550;7.208;2022-10-30T09:26:33;100993.60;;;18.50
70831;BMP180;58451;51.550;7.208;2022-10-30T09:28:41;100992.60;;;18.60
70831;BMP180;58451;51.550;7.208;2022-10-30T09:30:36;100996.60;;;18.72
70831;BMP180;58451;51.550;7.208;2022-10-30T09:32:13;100994.00;;;18.80
70831;BMP180;58451;51.550;7.208;2022-10-30T09:33:53;100987.00;;;18.94
70831;BMP180;58451;51.550;7.208;2022-10-30T09:35:51;100986.40;;;19.10
70831;BMP180;58451;51.550;7.208;2022-10-30T09:37:23;100990.20;;;19.12
70831;BMP180;58451;51.550;7.208;2022-10-30T09:39:06;100987.40;;;19.22
70831;BMP180;58451;51.550;7.208;2022-10-30T09:42:56;100977.60;;;19.50